This is the latest recevied weather packets stored in our database for station/object KI5BDI. If no packets are shown the sender has not sent any weather packets the latest 10 day(s).
| Time | Temp. | Humidity | Pressure | Rain* | Wind** | Luminosity | Snow |
|---|---|---|---|---|---|---|---|
| 1777763117 | 23.89° C | 46% | 1017.5 hPa | 0 mm | - | 310 W/m² | - |
| 1777761921 | 23.89° C | 47% | 1017.6 hPa | 0 mm | - | 388 W/m² | - |
| 1777758361 | 24.44° C | 48% | 1017.8 hPa | 0 mm | - | 618 W/m² | - |
| 1777757719 | 23.89° C | 48% | 1017.9 hPa | 0 mm | - | 655 W/m² | - |
| 1777755319 | 22.78° C | 50% | 1018.2 hPa | 0 mm | - | 793 W/m² | - |
| 1777751720 | 22.78° C | 52% | 1018.8 hPa | 0 mm | - | 949 W/m² | - |
| 1777750520 | 23.33° C | 50% | 1018.9 hPa | 0 mm | - | 995 W/m² | - |
| 1777747521 | 22.78° C | 49% | 1019.4 hPa | 0 mm | - | 1060 W/m² | - |
| 1777746318 | 22.22° C | 50% | 1019.8 hPa | 0 mm | - | 956 W/m² | - |
| 1777745118 | 21.67° C | 51% | 1019.9 hPa | 0 mm | - | 1077 W/m² | - |
| 1777743919 | 21.67° C | 53% | 1020.1 hPa | 0 mm | - | 1068 W/m² | - |
| 1777742719 | 21.11° C | 54% | 1020.4 hPa | 0 mm | - | 1052 W/m² | - |
| 1777741519 | 20.56° C | 55% | 1020.5 hPa | 0 mm | - | 1025 W/m² | - |
| 1777734320 | 17.78° C | 70% | 1020.6 hPa | 0 mm | - | 700 W/m² | - |
| 1777733720 | 17.22° C | 70% | 1020.7 hPa | 0 mm | - | 661 W/m² | - |
| 1777733118 | 17.22° C | 71% | 1020.5 hPa | 0 mm | - | 620 W/m² | - |
| 1777731319 | 15° C | 78% | 1020.1 hPa | 0 mm | - | 506 W/m² | - |
| 1777730739 | 14.44° C | 82% | 1020.1 hPa | 0 mm | - | 467 W/m² | - |
| 1777729519 | 15.56° C | 96% | 1020.3 hPa | 0 mm | - | 388 W/m² | - |
| 1777725920 | 10° C | 100% | 1019.8 hPa | 0 mm | - | 163 W/m² | - |
| 1777725332 | 8.89° C | 99% | 1019.7 hPa | 0 mm | - | 128 W/m² | - |
| 1777715718 | 7.78° C | 97% | 1018.1 hPa | 0 mm | - | 0 W/m² | - |
| 1777710920 | 9.44° C | 97% | 1017.7 hPa | 0 mm | - | 0 W/m² | - |
| 1777709720 | 9.44° C | 97% | 1017.7 hPa | 0 mm | - | 0 W/m² | - |
| 1777709120 | 10° C | 97% | 1017.7 hPa | 0 mm | - | 0 W/m² | - |
* Rain latest hour (hover to see other rain measurements)
** Current wind speed in m/s (hover to see current wind gust speed)